createdAt,value
2023-10-11T00:01:21.020Z,55.73
2023-10-11T00:03:54.502Z,38.50
2023-10-11T00:06:25.694Z,36.10
2023-10-11T00:08:54.700Z,41.57
2023-10-11T00:11:31.473Z,34.00
2023-10-11T00:13:59.696Z,33.87
2023-10-11T00:16:32.797Z,38.90
2023-10-11T00:19:01.077Z,39.40
2023-10-11T00:21:41.912Z,51.53
2023-10-11T00:24:10.405Z,42.73
2023-10-11T00:26:41.346Z,43.10
2023-10-11T00:29:10.447Z,44.57
2023-10-11T00:31:39.549Z,44.87
2023-10-11T00:34:13.687Z,39.13
2023-10-11T00:36:46.941Z,44.10
2023-10-11T00:39:19.206Z,47.63
2023-10-11T00:41:50.613Z,49.90
2023-10-11T00:44:21.564Z,36.67
2023-10-11T00:47:01.373Z,38.90
2023-10-11T00:49:38.045Z,48.20
2023-10-11T00:52:08.648Z,42.30
2023-10-11T00:54:44.048Z,44.07
2023-10-11T00:57:16.528Z,39.60
2023-10-11T00:59:45.502Z,43.27
2023-10-11T01:02:15.760Z,52.63
2023-10-11T01:04:44.417Z,53.63
2023-10-11T01:07:14.435Z,49.00
2023-10-11T01:09:44.811Z,49.20
2023-10-11T01:12:14.732Z,49.33
2023-10-11T01:14:58.260Z,51.97
2023-10-11T01:17:28.065Z,47.87
2023-10-11T01:19:56.301Z,46.90
2023-10-11T01:22:28.088Z,44.47
2023-10-11T01:24:59.442Z,44.40
2023-10-11T01:27:31.753Z,43.20
2023-10-11T01:30:00.490Z,45.07
2023-10-11T01:32:29.794Z,50.23
2023-10-11T01:34:58.025Z,47.53
2023-10-11T01:37:27.789Z,44.93
2023-10-11T01:39:56.077Z,44.90
2023-10-11T01:42:24.462Z,43.33
2023-10-11T01:44:52.775Z,50.10
2023-10-11T01:47:21.369Z,50.93
2023-10-11T01:49:53.922Z,44.27
2023-10-11T01:52:22.482Z,61.93
2023-10-11T01:54:52.094Z,51.90
2023-10-11T01:57:21.514Z,51.40
2023-10-11T01:59:49.842Z,54.83
2023-10-11T02:02:18.103Z,49.43
2023-10-11T02:04:46.550Z,48.83
2023-10-11T02:07:15.571Z,55.23
2023-10-11T02:09:44.408Z,54.27
2023-10-11T02:12:18.729Z,52.80
2023-10-11T02:14:47.451Z,65.13
2023-10-11T02:17:19.283Z,55.03
2023-10-11T02:19:47.579Z,52.40
2023-10-11T02:22:19.916Z,56.13
2023-10-11T02:24:48.258Z,55.10
2023-10-11T02:27:19.064Z,67.47
2023-10-11T02:29:48.898Z,51.77
2023-10-11T02:32:17.354Z,55.70
2023-10-11T02:34:48.361Z,62.27
2023-10-11T02:37:17.648Z,58.10
2023-10-11T02:39:46.832Z,59.03
2023-10-11T02:42:20.275Z,59.67
2023-10-11T02:44:50.619Z,61.53
2023-10-11T02:47:23.828Z,56.57
2023-10-11T02:49:55.004Z,63.60
2023-10-11T02:52:30.716Z,58.90
2023-10-11T02:55:01.097Z,57.33
2023-10-11T02:57:29.472Z,54.30
2023-10-11T02:59:59.106Z,59.33
2023-10-11T03:02:31.258Z,64.50
2023-10-11T03:05:02.867Z,55.70
2023-10-11T03:07:34.516Z,67.67
2023-10-11T03:10:04.732Z,64.73
2023-10-11T03:12:35.643Z,51.13
2023-10-11T03:15:10.152Z,49.27
2023-10-11T03:17:43.693Z,52.70
2023-10-11T03:20:36.974Z,54.13
2023-10-11T03:23:12.301Z,54.07
2023-10-11T03:25:50.888Z,60.50
2023-10-11T03:28:27.361Z,58.43
2023-10-11T03:30:57.632Z,54.20
2023-10-11T03:33:25.983Z,69.03
2023-10-11T03:35:56.261Z,62.30
2023-10-11T03:38:25.315Z,62.50
2023-10-11T03:40:56.724Z,51.80
2023-10-11T03:43:27.369Z,90.27
2023-10-11T03:46:00.846Z,48.30
2023-10-11T03:48:31.801Z,41.20
2023-10-11T03:51:00.802Z,65.27
2023-10-11T03:53:33.034Z,49.87
2023-10-11T03:56:03.214Z,64.43
2023-10-11T03:58:34.013Z,57.07
2023-10-11T04:01:13.801Z,56.13
2023-10-11T04:03:43.959Z,57.63
2023-10-11T04:06:16.171Z,52.03
2023-10-11T04:08:49.893Z,47.20
2023-10-11T04:11:20.084Z,55.97
2023-10-11T04:13:50.410Z,44.03
2023-10-11T04:16:20.031Z,41.37
2023-10-11T04:18:53.297Z,50.00
2023-10-11T04:21:39.325Z,37.80
2023-10-11T04:24:08.644Z,56.93
2023-10-11T04:26:41.651Z,41.10
2023-10-11T04:29:18.026Z,57.20
2023-10-11T04:32:10.561Z,46.27
2023-10-11T04:34:46.556Z,43.53
2023-10-11T04:37:28.321Z,41.40
2023-10-11T04:40:15.916Z,45.37
2023-10-11T04:42:44.236Z,56.43
2023-10-11T04:45:22.953Z,38.40
2023-10-11T04:47:54.974Z,64.93
2023-10-11T04:50:25.786Z,41.00
2023-10-11T04:52:57.384Z,44.97
2023-10-11T04:55:36.007Z,89.40
2023-10-11T04:58:05.569Z,40.77
2023-10-11T05:00:45.645Z,36.70
2023-10-11T05:03:18.854Z,64.57
2023-10-11T05:05:59.860Z,48.63
2023-10-11T05:08:52.502Z,36.00
2023-10-11T05:11:37.183Z,39.00
2023-10-11T05:14:23.659Z,40.90
2023-10-11T05:16:52.231Z,51.53
2023-10-11T05:19:22.557Z,42.90
2023-10-11T05:22:03.560Z,55.33
2023-10-11T05:24:45.236Z,39.20
2023-10-11T05:27:26.766Z,43.77
2023-10-11T05:30:12.544Z,47.33
2023-10-11T05:32:50.800Z,45.17
2023-10-11T05:35:28.085Z,49.37
2023-10-11T05:38:14.700Z,44.13
2023-10-11T05:41:00.761Z,55.73
2023-10-11T05:43:46.814Z,48.23
2023-10-11T05:46:32.873Z,44.50
2023-10-11T05:49:19.040Z,56.23
2023-10-11T05:51:49.462Z,48.50
2023-10-11T05:54:18.079Z,43.53
2023-10-11T05:56:48.617Z,54.37
2023-10-11T05:59:17.695Z,44.00
2023-10-11T06:01:46.233Z,47.00
2023-10-11T06:04:15.330Z,57.30
2023-10-11T06:06:46.619Z,60.87
2023-10-11T06:09:19.450Z,43.70
2023-10-11T06:11:50.666Z,50.27
2023-10-11T06:14:20.931Z,53.20
2023-10-11T06:16:58.185Z,44.13
2023-10-11T06:19:28.324Z,52.20
2023-10-11T06:21:58.636Z,50.50
2023-10-11T06:24:34.145Z,46.00
2023-10-11T06:27:29.770Z,52.30
2023-10-11T06:29:58.333Z,54.17
2023-10-11T06:32:26.974Z,57.00
2023-10-11T06:34:55.175Z,49.37
2023-10-11T06:37:25.407Z,60.70
2023-10-11T06:40:15.635Z,51.93
2023-10-11T06:42:43.573Z,42.53
2023-10-11T06:45:18.909Z,52.40
2023-10-11T06:47:51.393Z,39.43
2023-10-11T06:50:25.253Z,45.37
2023-10-11T06:52:54.589Z,39.80
2023-10-11T06:55:27.459Z,50.00
2023-10-11T06:57:56.974Z,40.60
2023-10-11T07:00:29.352Z,53.03
2023-10-11T07:03:08.642Z,36.50
2023-10-11T07:05:41.783Z,44.80
2023-10-11T07:08:10.850Z,37.23
2023-10-11T07:10:46.716Z,40.40
2023-10-11T07:13:16.481Z,46.17
2023-10-11T07:15:47.268Z,35.27
2023-10-11T07:18:26.122Z,41.00
2023-10-11T07:21:08.587Z,43.00
2023-10-11T07:23:57.018Z,46.30
2023-10-11T07:26:42.612Z,45.20
2023-10-11T07:29:12.769Z,45.17
2023-10-11T07:31:49.812Z,48.73
2023-10-11T07:34:20.060Z,43.23
2023-10-11T07:36:50.557Z,39.43
2023-10-11T07:39:26.446Z,44.70
2023-10-11T07:42:05.423Z,53.90
2023-10-11T07:44:37.747Z,43.60
2023-10-11T07:47:09.486Z,42.80
2023-10-11T07:49:40.659Z,48.67
2023-10-11T07:52:14.942Z,45.00
2023-10-11T07:54:44.300Z,48.90
2023-10-11T07:57:15.849Z,49.37
2023-10-11T07:59:45.657Z,50.90
2023-10-11T08:05:13.564Z,47.17
2023-10-11T08:07:42.574Z,52.13
2023-10-11T08:10:25.651Z,49.03
2023-10-11T08:12:57.363Z,39.93
2023-10-11T08:15:26.548Z,43.93
2023-10-11T08:17:55.193Z,40.87
2023-10-11T08:20:29.260Z,35.10
2023-10-11T08:22:58.875Z,38.43
2023-10-11T08:25:29.107Z,40.27
2023-10-11T08:28:13.327Z,36.10
2023-10-11T08:30:46.719Z,45.80
2023-10-11T08:33:15.476Z,47.50
2023-10-11T08:35:49.342Z,38.17
2023-10-11T08:38:20.082Z,41.97
2023-10-11T08:40:51.481Z,46.20
2023-10-11T08:43:22.059Z,36.50
2023-10-11T08:46:01.077Z,30.40
2023-10-11T08:48:30.140Z,31.87
2023-10-11T08:51:00.372Z,28.50
2023-10-11T08:53:32.364Z,30.40
2023-10-11T08:56:00.959Z,38.50
2023-10-11T08:58:29.950Z,34.03
2023-10-11T09:01:00.270Z,27.87
2023-10-11T09:03:32.926Z,34.37
2023-10-11T09:06:02.925Z,30.00
2023-10-11T09:08:36.741Z,31.60
2023-10-11T09:11:29.882Z,34.67
2023-10-11T09:14:23.800Z,40.53
2023-10-11T09:16:53.206Z,33.27
2023-10-11T09:19:23.080Z,31.33
2023-10-11T09:22:04.820Z,24.80
2023-10-11T09:24:44.809Z,24.43
2023-10-11T09:27:20.303Z,38.10
2023-10-11T09:29:52.338Z,24.97
2023-10-11T09:32:28.235Z,24.73
2023-10-11T09:34:55.806Z,29.03
2023-10-11T09:37:28.855Z,41.57
2023-10-11T09:40:02.178Z,24.97
2023-10-11T09:42:31.583Z,20.37
2023-10-11T09:45:02.183Z,22.60
2023-10-11T09:47:32.429Z,22.23
2023-10-11T09:50:08.375Z,21.20
2023-10-11T09:52:38.007Z,18.70
2023-10-11T09:55:18.772Z,21.83
2023-10-11T09:58:01.057Z,24.43
2023-10-11T10:00:42.138Z,23.33
2023-10-11T10:03:14.566Z,27.90
2023-10-11T10:06:09.702Z,33.23
2023-10-11T10:08:39.321Z,25.40
2023-10-11T10:11:13.389Z,25.53
2023-10-11T10:14:07.066Z,23.83
2023-10-11T10:17:11.901Z,18.50
2023-10-11T10:19:45.089Z,21.40
2023-10-11T10:22:17.318Z,23.67
2023-10-11T10:24:49.369Z,19.37
2023-10-11T10:27:49.656Z,19.10
2023-10-11T10:30:22.924Z,28.83
2023-10-11T10:33:22.271Z,19.43
2023-10-11T10:35:50.917Z,18.97
2023-10-11T10:38:23.925Z,20.30
2023-10-11T10:41:26.663Z,27.07
2023-10-11T10:44:07.423Z,21.80
2023-10-11T10:46:37.550Z,25.93
2023-10-11T10:49:05.282Z,22.20
2023-10-11T10:51:36.828Z,23.00
2023-10-11T10:54:14.088Z,23.10
2023-10-11T10:56:48.636Z,42.23
2023-10-11T10:59:21.633Z,30.53
2023-10-11T11:01:54.028Z,26.13
2023-10-11T11:04:30.136Z,24.90
2023-10-11T11:06:59.512Z,17.33
2023-10-11T11:09:27.210Z,20.50
2023-10-11T11:12:17.904Z,17.73
2023-10-11T11:14:55.363Z,22.30
2023-10-11T11:17:25.188Z,20.20
2023-10-11T11:20:14.407Z,17.77
2023-10-11T11:22:49.159Z,20.20
2023-10-11T11:25:19.787Z,20.33
2023-10-11T11:28:02.728Z,19.77
2023-10-11T11:30:34.957Z,19.60
2023-10-11T11:33:15.126Z,24.00
2023-10-11T11:35:45.258Z,28.93
2023-10-11T11:38:22.081Z,17.50
2023-10-11T11:40:52.438Z,22.83
2023-10-11T11:43:22.575Z,21.67
2023-10-11T11:45:57.747Z,27.20
2023-10-11T11:48:26.299Z,17.87
2023-10-11T11:50:57.657Z,16.60
2023-10-11T11:53:27.736Z,20.80
2023-10-11T11:55:54.939Z,18.53
2023-10-11T11:58:24.541Z,21.47
2023-10-11T12:01:09.797Z,15.40
2023-10-11T12:03:39.087Z,18.63
2023-10-11T12:06:23.134Z,17.87
2023-10-11T12:08:59.117Z,22.83
2023-10-11T12:11:30.827Z,24.63
2023-10-11T12:14:05.128Z,24.20
2023-10-11T12:16:33.556Z,24.27
2023-10-11T12:19:02.000Z,18.33
2023-10-11T12:21:34.673Z,19.67
2023-10-11T12:24:11.508Z,18.13
2023-10-11T12:26:48.739Z,18.70
2023-10-11T12:29:19.592Z,21.80
2023-10-11T12:31:47.901Z,17.13
2023-10-11T12:34:18.194Z,19.73
2023-10-11T12:36:53.072Z,21.93
2023-10-11T12:39:23.312Z,22.23
2023-10-11T12:41:53.005Z,20.00
2023-10-11T12:44:23.517Z,19.33
2023-10-11T12:46:53.263Z,16.13
2023-10-11T12:49:21.606Z,27.50
2023-10-11T12:51:51.200Z,29.77
2023-10-11T12:54:21.017Z,14.33
2023-10-11T12:56:49.771Z,21.30
2023-10-11T12:59:20.928Z,12.70
2023-10-11T13:01:53.573Z,15.57
2023-10-11T13:04:28.981Z,19.43
2023-10-11T13:07:00.379Z,17.17
2023-10-11T13:09:31.821Z,13.53
2023-10-11T13:12:03.934Z,22.60
2023-10-11T13:14:34.535Z,21.30
2023-10-11T13:17:08.941Z,17.53
2023-10-11T13:19:38.028Z,18.27
2023-10-11T13:22:10.810Z,15.13
2023-10-11T13:24:39.269Z,13.83
2023-10-11T13:27:09.068Z,23.00
2023-10-11T13:29:38.753Z,24.77
2023-10-11T13:32:09.362Z,25.27
2023-10-11T13:34:37.709Z,24.20
2023-10-11T13:37:09.688Z,22.60
2023-10-11T13:39:46.953Z,18.03
2023-10-11T13:42:16.876Z,34.53
2023-10-11T13:44:45.745Z,19.20
2023-10-11T13:47:15.881Z,16.87
2023-10-11T13:49:48.673Z,22.93
2023-10-11T13:52:20.565Z,16.30
2023-10-11T13:54:52.784Z,20.17
2023-10-11T13:57:22.500Z,19.97
2023-10-11T13:59:52.160Z,23.53
2023-10-11T14:02:35.625Z,20.40
2023-10-11T14:05:22.724Z,18.50
2023-10-11T14:07:55.520Z,28.03
2023-10-11T14:10:28.045Z,22.00
2023-10-11T14:13:08.921Z,26.70
2023-10-11T14:15:39.056Z,22.93
2023-10-11T14:18:16.488Z,29.60
2023-10-11T14:20:50.670Z,28.43
2023-10-11T14:23:18.868Z,22.83
2023-10-11T14:25:47.269Z,17.13
2023-10-11T14:28:16.671Z,17.77
2023-10-11T14:30:47.540Z,19.47
2023-10-11T14:33:19.199Z,14.63
2023-10-11T14:35:48.438Z,20.60
2023-10-11T14:38:17.794Z,13.53
2023-10-11T14:40:48.080Z,13.90
2023-10-11T14:43:17.742Z,23.60
2023-10-11T14:45:49.321Z,23.20
2023-10-11T14:48:19.417Z,19.13
2023-10-11T14:50:48.033Z,21.63
2023-10-11T14:53:16.932Z,25.60
2023-10-11T14:55:46.068Z,18.27
2023-10-11T14:58:16.091Z,19.20
2023-10-11T15:00:46.971Z,20.90
2023-10-11T15:03:15.631Z,20.10
2023-10-11T15:05:46.288Z,17.93
2023-10-11T15:08:17.050Z,27.73
2023-10-11T15:10:49.344Z,15.63
2023-10-11T15:13:17.948Z,17.37
2023-10-11T15:15:47.063Z,18.07
2023-10-11T15:18:15.960Z,18.83
2023-10-11T15:20:47.116Z,25.17
2023-10-11T15:23:15.310Z,20.53
2023-10-11T15:25:44.733Z,16.00
2023-10-11T15:28:13.502Z,16.90
2023-10-11T15:30:43.034Z,16.73
2023-10-11T15:33:13.699Z,26.63
2023-10-11T15:35:48.333Z,18.70
2023-10-11T15:38:17.929Z,17.17
2023-10-11T15:40:48.072Z,20.87
2023-10-11T15:43:19.383Z,18.07
2023-10-11T15:45:52.657Z,25.13
2023-10-11T15:48:21.557Z,21.93
2023-10-11T15:50:50.079Z,21.80
2023-10-11T15:53:22.184Z,18.27
2023-10-11T15:55:50.354Z,22.63
2023-10-11T15:58:18.491Z,26.87
2023-10-11T16:00:47.119Z,30.40
2023-10-11T16:03:16.272Z,22.97
2023-10-11T16:05:44.902Z,22.43
2023-10-11T16:08:15.160Z,22.90
2023-10-11T16:10:45.307Z,19.73
2023-10-11T16:13:14.284Z,23.23
2023-10-11T16:15:42.960Z,20.10
2023-10-11T16:18:11.628Z,18.47
2023-10-11T16:20:40.382Z,20.30
2023-10-11T16:23:09.280Z,23.93
2023-10-11T16:25:37.489Z,19.83
2023-10-11T16:28:10.848Z,19.40
2023-10-11T16:30:39.392Z,19.70
2023-10-11T16:33:08.053Z,22.77
2023-10-11T16:35:38.988Z,25.50
2023-10-11T16:38:07.363Z,19.40
2023-10-11T16:40:35.751Z,19.40
2023-10-11T16:43:05.884Z,35.20
2023-10-11T16:45:38.910Z,26.63
2023-10-11T16:48:11.493Z,23.07
2023-10-11T16:50:41.052Z,22.33
2023-10-11T16:53:09.645Z,20.33
2023-10-11T16:55:38.314Z,26.03
2023-10-11T16:58:06.839Z,29.87
2023-10-11T17:00:36.904Z,25.87
2023-10-11T17:03:07.750Z,22.70
2023-10-11T17:05:36.427Z,22.10
2023-10-11T17:08:06.179Z,24.43
2023-10-11T17:10:35.058Z,22.77
2023-10-11T17:13:03.995Z,22.53
2023-10-11T17:15:34.345Z,20.50
2023-10-11T17:18:05.533Z,19.30
2023-10-11T17:20:34.200Z,29.10
2023-10-11T17:23:02.731Z,27.17
2023-10-11T17:25:31.315Z,27.40
2023-10-11T17:28:00.055Z,30.90
2023-10-11T17:30:31.936Z,19.47
2023-10-11T17:33:03.926Z,20.90
2023-10-11T17:35:37.048Z,24.60
2023-10-11T17:38:07.670Z,16.40
2023-10-11T17:40:38.688Z,23.37
2023-10-11T17:43:08.169Z,26.80
2023-10-11T17:45:36.891Z,24.90
2023-10-11T17:48:07.563Z,25.60
2023-10-11T17:50:36.544Z,24.20
2023-10-11T17:53:05.654Z,25.33
2023-10-11T17:55:34.746Z,23.60
2023-10-11T17:58:07.332Z,24.10
2023-10-11T18:00:38.985Z,25.17
2023-10-11T18:03:09.455Z,22.73
2023-10-11T18:05:39.436Z,22.80
2023-10-11T18:08:08.256Z,19.13
2023-10-11T18:10:38.659Z,26.60
2023-10-11T18:13:06.935Z,25.13
2023-10-11T18:15:35.399Z,20.10
2023-10-11T18:18:06.116Z,27.67
2023-10-11T18:20:38.140Z,26.30
2023-10-11T18:23:09.463Z,24.00
2023-10-11T18:25:39.020Z,22.67
2023-10-11T18:28:07.635Z,25.03
2023-10-11T18:30:36.497Z,38.87
2023-10-11T18:33:05.851Z,20.87
2023-10-11T18:35:40.470Z,30.87
2023-10-11T18:38:09.124Z,22.63
2023-10-11T18:40:37.624Z,23.13
2023-10-11T18:43:07.742Z,19.07
2023-10-11T18:45:37.984Z,24.30
2023-10-11T18:48:07.873Z,27.90
2023-10-11T18:50:37.564Z,22.47
2023-10-11T18:53:05.753Z,26.13
2023-10-11T18:55:34.606Z,24.03
2023-10-11T18:58:02.909Z,26.80
2023-10-11T19:00:34.508Z,33.07
2023-10-11T19:03:08.251Z,30.03
2023-10-11T19:05:40.479Z,27.93
2023-10-11T19:08:08.915Z,33.37
2023-10-11T19:10:38.806Z,23.60
2023-10-11T19:13:07.171Z,29.03
2023-10-11T19:15:35.419Z,30.27
2023-10-11T19:18:07.388Z,25.60
2023-10-11T19:20:37.273Z,25.80
2023-10-11T19:23:05.783Z,19.97
2023-10-11T19:25:34.424Z,28.03
2023-10-11T19:28:02.696Z,37.37
2023-10-11T19:30:31.138Z,21.30
2023-10-11T19:32:59.342Z,24.10
2023-10-11T19:35:27.562Z,29.07
2023-10-11T19:37:59.055Z,28.57
2023-10-11T19:40:28.525Z,23.70
2023-10-11T19:42:57.151Z,28.30
2023-10-11T19:45:26.124Z,17.90
2023-10-11T19:47:55.164Z,23.87
2023-10-11T19:50:27.289Z,26.37
2023-10-11T19:52:56.919Z,23.63
2023-10-11T19:55:30.292Z,27.17
2023-10-11T19:58:00.984Z,24.50
2023-10-11T20:00:34.262Z,28.87
2023-10-11T20:03:04.037Z,33.37
2023-10-11T20:05:32.808Z,23.57
2023-10-11T20:08:02.316Z,22.87
2023-10-11T20:10:30.945Z,23.00
2023-10-11T20:12:59.204Z,23.30
2023-10-11T20:15:28.250Z,30.00
2023-10-11T20:17:56.428Z,25.67
2023-10-11T20:20:25.968Z,33.07
2023-10-11T20:22:56.925Z,34.33
2023-10-11T20:25:26.545Z,26.73
2023-10-11T20:27:54.739Z,26.10
2023-10-11T20:30:27.442Z,25.10
2023-10-11T20:32:58.016Z,25.90
2023-10-11T20:35:27.521Z,24.17
2023-10-11T20:38:02.841Z,22.40
2023-10-11T20:40:32.866Z,23.27
2023-10-11T20:43:01.031Z,26.27
2023-10-11T20:45:29.195Z,23.73
2023-10-11T20:47:58.029Z,26.63
2023-10-11T20:50:32.915Z,40.03
2023-10-11T20:53:03.446Z,25.20
2023-10-11T20:55:38.245Z,25.37
2023-10-11T20:58:19.396Z,28.30
2023-10-11T21:00:50.662Z,20.60
2023-10-11T21:03:22.118Z,22.53
2023-10-11T21:05:52.553Z,20.83
2023-10-11T21:08:26.252Z,36.80
2023-10-11T21:10:56.146Z,27.73
2023-10-11T21:13:26.819Z,33.93
2023-10-11T21:16:03.657Z,22.80
2023-10-11T21:18:32.630Z,23.63
2023-10-11T21:21:01.020Z,26.97
2023-10-11T21:23:29.778Z,24.80
2023-10-11T21:26:01.506Z,31.17
2023-10-11T21:28:30.440Z,31.30
2023-10-11T21:30:58.880Z,30.97
2023-10-11T21:33:29.882Z,24.10
2023-10-11T21:36:00.461Z,24.30
2023-10-11T21:38:31.512Z,22.17
2023-10-11T21:41:01.449Z,34.23
2023-10-11T21:43:29.992Z,24.43
2023-10-11T21:45:58.664Z,31.60
2023-10-11T21:48:26.030Z,28.90
2023-10-11T21:50:54.268Z,29.03
2023-10-11T21:53:23.234Z,21.63
2023-10-11T21:55:52.914Z,28.00
2023-10-11T21:58:25.352Z,32.90
2023-10-11T22:00:58.040Z,35.13
2023-10-11T22:03:26.335Z,26.27
2023-10-11T22:05:55.369Z,25.40
2023-10-11T22:08:25.444Z,27.10
2023-10-11T22:10:55.877Z,38.37
2023-10-11T22:13:26.409Z,36.70
2023-10-11T22:15:54.735Z,28.40
2023-10-11T22:18:23.772Z,31.60
2023-10-11T22:20:52.355Z,35.10
2023-10-11T22:23:22.025Z,33.80
2023-10-11T22:25:51.475Z,33.23
2023-10-11T22:28:20.196Z,35.00
2023-10-11T22:30:51.268Z,28.40
2023-10-11T22:33:23.321Z,29.27
2023-10-11T22:35:53.228Z,29.40
2023-10-11T22:38:21.926Z,38.30
2023-10-11T22:40:51.154Z,37.43
2023-10-11T22:43:29.785Z,30.87
2023-10-11T22:46:01.130Z,32.73
2023-10-11T22:48:29.428Z,34.63
2023-10-11T22:50:58.177Z,34.67
2023-10-11T22:53:26.360Z,41.93
2023-10-11T22:55:54.733Z,36.50
2023-10-11T22:58:22.916Z,37.73
2023-10-11T23:00:51.311Z,37.90
2023-10-11T23:03:21.603Z,40.57
2023-10-11T23:05:50.116Z,40.77
2023-10-11T23:08:18.752Z,45.23
2023-10-11T23:10:50.890Z,36.80
2023-10-11T23:13:19.249Z,39.03
2023-10-11T23:15:53.393Z,40.90
2023-10-11T23:18:28.323Z,47.60
2023-10-11T23:21:01.326Z,49.60
2023-10-11T23:23:40.363Z,35.93
2023-10-11T23:26:10.153Z,39.03
2023-10-11T23:28:39.622Z,36.60
2023-10-11T23:31:10.832Z,36.80
2023-10-11T23:33:51.394Z,42.53
2023-10-11T23:36:25.699Z,44.13
2023-10-11T23:39:02.965Z,36.50
2023-10-11T23:41:45.868Z,42.80
2023-10-11T23:44:23.666Z,41.33
2023-10-11T23:47:01.444Z,50.30
2023-10-11T23:52:07.374Z,36.17
2023-10-11T23:54:39.645Z,38.17
2023-10-11T23:57:20.360Z,44.40
2023-10-11T23:59:48.567Z,45.03
